Карточка аэропорта URMM

Внимание!
Информация на этой странице в стадии наполнения.
Если вы не увидели какой-то информации, или заметили неточность - пожалуйста сообщите нам!
Спасибо!
Команда RU-STAFF
Название аэропортаМинеральные Воды
Название аэропорта (англ.)Mineralnyye Vody
Превышение1047 ft. (319.1 m.)
Координаты44°13.608', 43°4.9799999999999'
Высота перехода7000 ft
Эшелон переходаFL80 (QNH >= 1013); FL90 (QNH 977-1012); FL100 (QNH < 977)
Коды ответчика1050-1057
Зона ОрВДРостов-на-Дону РПИ (URRV)
Данные METARURMM 140200Z VRB01MPS 9999 NSC 15/15 Q1014 R29/090070 TEMPO 0300 FG BKN002 RMK QFE732/0976
Проноз погоды (TAF)URMM 132000Z 1321/1421 29003G08MPS 9999 BKN030 TX30/1412Z TN16/1402Z TEMPO 1321/1405 6000 -SHRA BKN016 BKN030CB BECMG 1405/1406 09003G08MPS TEMPO 1406/1421 VRB06G14MPS 6000 -TSRA BKN016 BKN030CB
NOTAMshow/hide NOTAM
AWOS   TABLE

Информация о ВПП

ВПП Длина ВПП (м.) Покрытие Курс ВПП Частота ILS
123900Бетон115111.7
303900Бетон295109.3

Диспетчерские позиции

Позывной Наименование органа УВД Частота
URMM_APPМинводы-Подход119.3
URMM_GNDМинводы-Руление121.9
URMM_R_APPМинводы-Круг120.7
URMM_TWRМинводы-Старт128.0



Спутниковое изображение